Time;durP1;ratioP1;P1;durP2;ratioP2;P2;SDS_P1;SDS_P2;PMS_P1;PMS_P2;Temp;Humidity;BMP_temperature;BMP_pressure;BME280_temperature;BME280_humidity;BME280_pressure;Samples;Min_cycle;Max_cycle;Signal;HPM_P1;HPM_P2
2023/07/17 00:00:37;;;;;;;8.35;3.50;;;18.90;96.70;;;;;;4960507;28;20027;-81
2023/07/17 00:03:04;;;;;;;5.70;2.88;;;18.90;96.40;;;;;;4961063;28;20035;-82
2023/07/17 00:05:30;;;;;;;8.98;3.10;;;18.90;96.50;;;;;;4961534;28;20034;-81
2023/07/17 00:07:55;;;;;;;7.15;3.13;;;18.80;96.70;;;;;;4962282;28;20019;-80
2023/07/17 00:10:23;;;;;;;6.50;3.50;;;18.80;96.80;;;;;;4963098;28;20502;-81
2023/07/17 00:12:51;;;;;;;6.22;2.85;;;18.80;96.90;;;;;;5110507;23;20143;-79
2023/07/17 00:15:22;;;;;;;9.05;3.05;;;18.70;97.30;;;;;;4962379;28;20022;-81
2023/07/17 00:17:47;;;;;;;9.82;3.53;;;18.80;97.40;;;;;;4982212;28;20110;-79
2023/07/17 00:20:13;;;;;;;8.70;2.75;;;18.50;97.80;;;;;;4981147;28;21044;-79
2023/07/17 00:22:39;;;;;;;9.02;3.38;;;18.30;98.70;;;;;;4982183;28;20046;-79
2023/07/17 00:25:05;;;;;;;8.55;3.33;;;18.20;99.50;;;;;;4981079;28;20026;-79
2023/07/17 00:27:34;;;;;;;9.15;3.67;;;18.30;99.50;;;;;;4965595;28;20165;-79
2023/07/17 00:30:00;;;;;;;10.35;3.65;;;18.20;99.40;;;;;;4981214;28;20092;-82
2023/07/17 00:32:25;;;;;;;8.45;3.38;;;18.10;99.90;;;;;;4981550;28;20101;-81
2023/07/17 00:34:51;;;;;;;8.57;3.17;;;18.10;99.90;;;;;;4980073;28;20062;-79
2023/07/17 00:37:19;;;;;;;6.30;3.10;;;18.20;99.90;;;;;;4954023;28;20032;-80
2023/07/17 00:39:45;;;;;;;7.88;3.33;;;18.10;99.90;;;;;;4982319;28;20031;-80
2023/07/17 00:42:10;;;;;;;7.05;2.85;;;18.20;99.90;;;;;;4979795;28;20041;-81
2023/07/17 00:44:38;;;;;;;6.32;3.08;;;18.30;99.70;;;;;;4979557;28;20023;-80
2023/07/17 00:47:04;;;;;;;7.55;3.40;;;18.00;99.90;;;;;;4978603;28;20478;-81
2023/07/17 00:49:31;;;;;;;5.00;3.00;;;17.90;99.90;;;;;;4982892;28;20073;-81
2023/07/17 00:51:58;;;;;;;11.90;3.35;;;17.90;99.90;;;;;;4980914;28;20112;-80
2023/07/17 00:54:26;;;;;;;5.78;3.53;;;18.00;99.90;;;;;;4982167;28;20022;-80
2023/07/17 00:56:53;;;;;;;7.45;3.30;;;18.10;99.90;;;;;;5094022;23;20050;-78
2023/07/17 00:59:19;;;;;;;10.38;3.30;;;18.10;99.90;;;;;;4965969;28;20078;-78
2023/07/17 01:01:46;;;;;;;6.43;3.63;;;18.10;99.90;;;;;;4950011;28;20034;-78
2023/07/17 01:04:11;;;;;;;5.93;3.40;;;18.10;99.90;;;;;;4968275;28;20033;-79
2023/07/17 01:06:39;;;;;;;7.32;3.28;;;18.20;99.90;;;;;;4951139;28;20474;-78
2023/07/17 01:09:07;;;;;;;10.35;4.10;;;18.20;99.90;;;;;;4972648;28;20027;-80
2023/07/17 01:11:36;;;;;;;10.70;3.85;;;18.10;99.90;;;;;;4970032;28;20026;-81
2023/07/17 01:14:02;;;;;;;10.73;3.75;;;18.10;99.90;;;;;;4968109;28;20018;-81
2023/07/17 01:16:27;;;;;;;6.80;3.88;;;18.20;99.90;;;;;;4957892;28;20320;-81
2023/07/17 01:18:55;;;;;;;8.18;3.90;;;18.20;99.90;;;;;;4966848;28;20026;-80
2023/07/17 01:21:27;;;;;;;9.70;3.90;;;18.00;99.90;;;;;;4945292;28;20024;-81
2023/07/17 01:23:56;;;;;;;6.40;3.15;;;18.10;99.90;;;;;;4963882;28;20499;-81
2023/07/17 01:26:22;;;;;;;8.65;3.92;;;18.10;99.90;;;;;;4966644;28;20066;-81
2023/07/17 01:28:47;;;;;;;8.60;3.67;;;18.00;99.90;;;;;;4966584;28;20035;-78
2023/07/17 01:31:13;;;;;;;5.13;3.45;;;18.10;99.90;;;;;;4972112;28;20023;-78
2023/07/17 01:33:41;;;;;;;4.20;3.15;;;18.00;99.90;;;;;;4968024;28;20018;-79
2023/07/17 01:36:06;;;;;;;9.30;3.05;;;18.00;99.90;;;;;;4967423;28;20062;-79
2023/07/17 01:38:34;;;;;;;6.05;3.50;;;17.90;99.90;;;;;;4968121;28;20645;-78
2023/07/17 01:41:00;;;;;;;9.07;3.67;;;17.90;99.90;;;;;;4952129;28;20137;-78
2023/07/17 01:43:26;;;;;;;8.75;3.58;;;17.90;99.90;;;;;;4968121;28;20105;-78
2023/07/17 01:45:52;;;;;;;8.02;3.95;;;17.90;99.90;;;;;;4967537;28;20026;-78
2023/07/17 01:51:01;;;;;;;5.82;3.10;;;17.80;99.90;;;;;;5044233;23;20561;-80
2023/07/17 01:53:29;;;;;;;8.00;3.30;;;17.60;99.90;;;;;;4979123;28;20033;-79
2023/07/17 01:55:57;;;;;;;8.70;3.40;;;17.60;99.90;;;;;;4971297;28;20034;-81
2023/07/17 01:58:22;;;;;;;9.30;3.20;;;17.60;99.90;;;;;;4979062;28;20360;-81
2023/07/17 02:00:53;;;;;;;8.55;3.67;;;17.70;99.90;;;;;;4964353;28;20084;-79
2023/07/17 02:03:21;;;;;;;9.85;2.80;;;17.60;99.90;;;;;;4978566;28;20929;-81
2023/07/17 02:05:50;;;;;;;6.28;3.22;;;17.60;99.90;;;;;;4980802;28;20101;-80
2023/07/17 02:08:16;;;;;;;5.70;3.03;;;17.60;99.90;;;;;;4961934;28;20532;-80
2023/07/17 02:10:43;;;;;;;8.15;3.00;;;17.60;99.90;;;;;;4980741;28;20029;-81
2023/07/17 02:13:08;;;;;;;7.93;3.40;;;17.70;99.90;;;;;;4963163;28;20604;-81
2023/07/17 02:15:34;;;;;;;10.30;2.95;;;17.80;99.90;;;;;;4977664;28;20026;-81
2023/07/17 02:18:00;;;;;;;7.38;3.33;;;17.80;99.90;;;;;;4977734;28;20026;-78
2023/07/17 02:20:25;;;;;;;6.32;3.45;;;17.70;99.90;;;;;;4977002;28;20076;-79
2023/07/17 02:22:51;;;;;;;5.75;3.03;;;17.70;99.90;;;;;;4979382;28;20542;-78
2023/07/17 02:25:17;;;;;;;6.63;2.97;;;17.70;99.90;;;;;;4980659;28;20026;-78
2023/07/17 02:27:46;;;;;;;8.18;3.15;;;17.70;99.90;;;;;;4980408;28;20074;-78
2023/07/17 02:30:12;;;;;;;6.53;3.10;;;17.70;99.90;;;;;;4976485;28;21305;-78
2023/07/17 02:32:38;;;;;;;5.50;2.83;;;17.50;99.90;;;;;;4980099;28;20014;-78
2023/07/17 02:35:04;;;;;;;7.18;3.00;;;17.40;99.90;;;;;;4980338;28;20394;-80
2023/07/17 02:37:33;;;;;;;8.10;3.35;;;17.60;99.90;;;;;;4973754;28;20018;-80
2023/07/17 02:39:58;;;;;;;5.25;2.97;;;17.60;99.90;;;;;;4976197;28;20053;-80
2023/07/17 02:42:24;;;;;;;5.18;2.75;;;17.40;99.90;;;;;;4978714;28;20635;-80
2023/07/17 02:44:49;;;;;;;8.63;3.05;;;17.50;99.90;;;;;;4980814;28;20133;-79
2023/07/17 02:47:25;;;;;;;6.65;3.70;;;17.50;99.90;;;;;;4977840;28;20138;-80
2023/07/17 02:49:51;;;;;;;5.97;2.83;;;17.40;99.90;;;;;;4980135;28;20081;-80
2023/07/17 02:52:19;;;;;;;6.75;2.88;;;17.50;99.90;;;;;;4962902;28;20119;-80
2023/07/17 02:54:44;;;;;;;6.38;3.03;;;17.60;99.90;;;;;;4958548;28;20639;-81
2023/07/17 02:57:10;;;;;;;6.50;2.95;;;17.70;99.90;;;;;;4980359;28;20255;-80
2023/07/17 02:59:36;;;;;;;12.25;3.72;;;17.70;99.90;;;;;;4959038;28;20030;-81
2023/07/17 03:02:05;;;;;;;8.93;3.15;;;17.60;99.90;;;;;;4964001;28;20015;-80
2023/07/17 03:04:31;;;;;;;7.95;3.05;;;17.60;99.90;;;;;;4964160;28;20037;-80
2023/07/17 03:06:56;;;;;;;8.20;2.95;;;17.50;99.90;;;;;;4972380;28;20014;-80
2023/07/17 03:09:22;;;;;;;6.80;3.00;;;17.60;99.90;;;;;;5120645;23;20565;-82
2023/07/17 03:11:48;;;;;;;10.02;3.58;;;17.60;99.90;;;;;;4979629;28;20032;-80
2023/07/17 03:14:14;;;;;;;6.97;3.45;;;17.50;99.90;;;;;;4961022;28;20038;-82
2023/07/17 03:16:40;;;;;;;5.72;2.85;;;17.50;99.90;;;;;;4969205;28;20478;-82
2023/07/17 03:19:09;;;;;;;5.63;2.75;;;17.50;99.90;;;;;;4976194;28;20033;-81
2023/07/17 03:21:34;;;;;;;6.35;3.17;;;17.50;99.90;;;;;;4959841;28;20390;-78
2023/07/17 03:24:00;;;;;;;6.00;3.35;;;17.30;99.90;;;;;;4973390;28;20084;-77
2023/07/17 03:26:25;;;;;;;8.30;3.25;;;17.30;99.90;;;;;;4977656;28;20023;-78
2023/07/17 03:28:51;;;;;;;6.03;3.03;;;17.20;99.90;;;;;;4962832;28;20019;-78
2023/07/17 03:31:17;;;;;;;6.10;3.75;;;17.20;99.90;;;;;;4960522;28;20414;-76
2023/07/17 03:33:42;;;;;;;4.75;2.95;;;17.30;99.90;;;;;;4979567;28;20423;-78
2023/07/17 03:36:08;;;;;;;10.90;3.15;;;17.20;99.90;;;;;;4978581;28;20029;-79
2023/07/17 03:38:33;;;;;;;8.45;3.13;;;17.20;99.90;;;;;;4979943;28;20394;-78
2023/07/17 03:40:59;;;;;;;6.93;2.95;;;17.10;99.90;;;;;;4971649;28;20027;-79
2023/07/17 03:43:24;;;;;;;4.47;2.88;;;17.10;99.90;;;;;;4978551;28;20390;-79
2023/07/17 03:45:53;;;;;;;8.55;3.63;;;17.00;99.90;;;;;;4962526;28;20070;-79
2023/07/17 03:48:18;;;;;;;10.15;3.30;;;17.00;99.90;;;;;;4978567;28;20026;-80
2023/07/17 03:50:44;;;;;;;8.95;3.90;;;17.00;99.90;;;;;;4961591;28;20030;-82
2023/07/17 03:53:10;;;;;;;7.32;3.42;;;17.00;99.90;;;;;;4962650;28;20026;-80
2023/07/17 03:55:38;;;;;;;8.95;3.30;;;16.80;99.90;;;;;;4983492;28;20449;-79
2023/07/17 03:58:09;;;;;;;7.60;3.05;;;16.90;99.90;;;;;;4980370;28;20161;-80
2023/07/17 04:00:34;;;;;;;10.65;3.88;;;16.90;99.90;;;;;;4961355;28;20031;-79
2023/07/17 04:03:01;;;;;;;7.75;3.22;;;16.90;99.90;;;;;;4980297;28;20034;-79
2023/07/17 04:05:26;;;;;;;14.80;3.30;;;16.90;99.90;;;;;;4980674;28;20113;-80
2023/07/17 04:07:54;;;;;;;8.73;3.22;;;16.90;99.90;;;;;;4973120;28;20346;-79
2023/07/17 04:10:20;;;;;;;6.05;3.42;;;16.90;99.90;;;;;;4979838;28;20038;-79
2023/07/17 04:12:45;;;;;;;7.47;3.47;;;17.00;99.90;;;;;;4980929;28;20030;-78
2023/07/17 04:15:11;;;;;;;8.27;3.10;;;17.00;99.90;;;;;;4982942;28;20542;-80
2023/07/17 04:17:39;;;;;;;7.47;3.20;;;17.00;99.90;;;;;;4970161;28;20018;-79
2023/07/17 04:20:09;;;;;;;10.43;3.20;;;17.10;99.90;;;;;;4964383;28;20510;-80
2023/07/17 04:22:34;;;;;;;10.05;3.25;;;17.00;99.90;;;;;;4980176;28;20088;-78
2023/07/17 04:25:01;;;;;;;4.97;3.17;;;17.00;99.90;;;;;;4963967;28;20019;-79
2023/07/17 04:27:27;;;;;;;5.57;3.20;;;16.90;99.90;;;;;;4979785;28;20030;-80
2023/07/17 04:29:53;;;;;;;6.38;3.33;;;17.00;99.90;;;;;;4962747;28;20118;-79
2023/07/17 04:32:19;;;;;;;8.00;3.00;;;17.00;99.90;;;;;;4980854;28;20110;-78
2023/07/17 04:34:44;;;;;;;7.95;3.20;;;17.00;99.90;;;;;;4980495;28;20092;-80
2023/07/17 04:37:12;;;;;;;7.22;3.50;;;17.00;99.90;;;;;;4980402;28;20033;-79
2023/07/17 04:39:37;;;;;;;5.82;3.15;;;17.00;99.90;;;;;;4981657;28;20029;-79
2023/07/17 04:42:03;;;;;;;6.07;3.05;;;17.10;99.90;;;;;;4979139;28;20868;-79
2023/07/17 04:44:31;;;;;;;7.05;3.40;;;17.10;99.90;;;;;;4980623;28;20034;-79
2023/07/17 04:46:57;;;;;;;4.97;3.13;;;17.00;99.90;;;;;;4962762;28;20145;-80
2023/07/17 04:49:23;;;;;;;10.43;3.22;;;17.10;99.90;;;;;;4981445;28;20105;-79
2023/07/17 04:51:51;;;;;;;13.05;3.33;;;16.90;99.90;;;;;;4975158;28;20030;-77
2023/07/17 04:54:17;;;;;;;6.25;2.85;;;17.00;99.90;;;;;;4979326;28;20038;-80
2023/07/17 04:56:42;;;;;;;7.85;3.38;;;17.10;99.90;;;;;;4979417;28;20109;-78
2023/07/17 04:59:08;;;;;;;8.00;3.03;;;17.20;99.90;;;;;;4956311;28;20363;-78
2023/07/17 05:01:33;;;;;;;6.70;2.80;;;17.10;99.90;;;;;;4981505;28;20045;-80
2023/07/17 05:03:59;;;;;;;6.95;3.22;;;17.20;99.90;;;;;;4982457;28;20050;-80
2023/07/17 05:06:25;;;;;;;10.52;3.40;;;17.10;99.90;;;;;;4983949;28;20544;-80
2023/07/17 05:08:50;;;;;;;8.73;3.40;;;17.20;99.90;;;;;;4970068;28;20056;-82
2023/07/17 05:11:18;;;;;;;6.82;2.85;;;17.20;99.90;;;;;;4984308;28;20109;-81
2023/07/17 05:13:44;;;;;;;10.35;3.15;;;17.20;99.90;;;;;;4984428;28;20470;-81
2023/07/17 05:16:09;;;;;;;14.80;3.10;;;17.20;99.90;;;;;;4983664;28;20065;-81
2023/07/17 05:18:35;;;;;;;6.28;2.90;;;17.40;99.90;;;;;;4981494;28;20096;-81
2023/07/17 05:21:00;;;;;;;13.15;3.50;;;17.30;99.90;;;;;;4966017;28;20034;-80
2023/07/17 05:23:26;;;;;;;7.05;3.08;;;17.40;99.90;;;;;;4965751;28;20054;-80
2023/07/17 05:25:54;;;;;;;10.15;3.10;;;17.50;99.90;;;;;;4983603;28;20046;-80
2023/07/17 05:28:20;;;;;;;8.27;3.53;;;17.40;99.90;;;;;;4983308;28;20011;-78
2023/07/17 05:30:45;;;;;;;6.63;3.03;;;17.40;99.90;;;;;;4981483;28;20552;-79
2023/07/17 05:33:11;;;;;;;14.38;3.45;;;17.50;99.90;;;;;;4984381;28;20026;-78
2023/07/17 05:35:37;;;;;;;9.27;3.65;;;17.30;99.90;;;;;;4981624;28;20300;-81
2023/07/17 05:38:03;;;;;;;11.82;3.15;;;17.40;99.90;;;;;;4983562;28;20031;-78
2023/07/17 05:40:35;;;;;;;7.32;3.65;;;17.60;99.90;;;;;;4962861;28;20058;-81
2023/07/17 05:43:00;;;;;;;9.50;3.92;;;17.60;99.90;;;;;;4985595;28;20034;-78
2023/07/17 05:45:26;;;;;;;9.73;3.17;;;17.60;99.90;;;;;;4986158;28;20030;-80
2023/07/17 05:47:51;;;;;;;7.97;3.17;;;17.60;99.90;;;;;;4982667;28;20030;-80
2023/07/17 05:50:19;;;;;;;8.93;3.80;;;17.60;99.90;;;;;;4984973;28;20038;-80
2023/07/17 05:52:44;;;;;;;9.50;4.25;;;17.50;99.90;;;;;;4985009;28;20390;-81
2023/07/17 05:55:10;;;;;;;12.75;4.50;;;17.60;99.60;;;;;;4982108;28;20026;-81
2023/07/17 05:57:38;;;;;;;10.98;4.35;;;17.60;99.50;;;;;;4987579;28;20410;-78
2023/07/17 06:00:05;;;;;;;10.63;4.47;;;17.70;99.80;;;;;;4984314;28;20026;-78
2023/07/17 06:02:30;;;;;;;12.88;5.05;;;17.70;99.50;;;;;;4969374;28;20034;-79
2023/07/17 06:04:58;;;;;;;9.13;4.50;;;17.80;98.50;;;;;;4985556;28;20176;-81
2023/07/17 06:07:24;;;;;;;12.30;5.18;;;17.80;98.80;;;;;;4985318;28;20037;-81
2023/07/17 06:09:49;;;;;;;10.55;4.88;;;17.80;98.10;;;;;;4986258;28;20030;-81
2023/07/17 06:12:15;;;;;;;12.48;5.43;;;17.90;98.30;;;;;;4969531;28;20026;-81
2023/07/17 06:14:40;;;;;;;13.73;5.45;;;17.90;97.90;;;;;;4983404;28;20029;-81
2023/07/17 06:17:07;;;;;;;12.57;5.38;;;17.80;97.70;;;;;;4967370;28;20360;-81
2023/07/17 06:19:35;;;;;;;20.70;6.75;;;18.00;97.50;;;;;;4984486;28;20097;-84
2023/07/17 06:22:01;;;;;;;17.52;5.90;;;17.90;97.20;;;;;;4985477;28;20022;-82
2023/07/17 06:24:27;;;;;;;13.25;5.32;;;18.00;97.10;;;;;;4968317;28;20375;-78
2023/07/17 06:26:52;;;;;;;15.15;5.90;;;17.90;97.50;;;;;;4973861;28;20038;-78
2023/07/17 06:29:18;;;;;;;14.80;6.32;;;18.00;96.70;;;;;;4985079;28;20089;-78
2023/07/17 06:31:43;;;;;;;15.13;5.70;;;18.00;97.00;;;;;;4986922;28;20473;-79
2023/07/17 06:34:09;;;;;;;16.92;6.30;;;18.10;96.90;;;;;;4985234;28;20050;-78
2023/07/17 06:36:37;;;;;;;14.95;6.03;;;18.00;96.50;;;;;;4986528;28;20025;-79
2023/07/17 06:39:05;;;;;;;14.48;5.75;;;18.10;96.60;;;;;;4985784;28;20474;-82
2023/07/17 06:41:33;;;;;;;13.77;6.65;;;18.10;96.50;;;;;;4967750;28;20386;-78
2023/07/17 06:43:58;;;;;;;18.45;6.45;;;18.10;97.10;;;;;;4985887;28;20037;-82
2023/07/17 06:46:24;;;;;;;11.00;6.25;;;18.20;96.90;;;;;;4984391;28;20402;-81
2023/07/17 06:48:49;;;;;;;12.82;6.70;;;18.10;96.70;;;;;;4987449;28;20113;-82
2023/07/17 06:51:15;;;;;;;20.13;6.88;;;18.20;96.90;;;;;;4978362;28;20041;-85
2023/07/17 06:53:43;;;;;;;16.15;6.78;;;18.20;96.30;;;;;;4975031;28;20746;-84
2023/07/17 06:56:08;;;;;;;12.63;6.35;;;18.30;96.30;;;;;;4988305;28;20078;-83
2023/07/17 06:58:34;;;;;;;12.98;5.88;;;18.40;96.20;;;;;;4970527;28;20062;-84
2023/07/17 07:01:00;;;;;;;19.65;6.10;;;18.50;95.90;;;;;;4986293;28;20032;-81
2023/07/17 07:03:27;;;;;;;11.77;5.90;;;18.50;96.00;;;;;;4987982;28;20050;-82
2023/07/17 07:05:59;;;;;;;12.85;5.95;;;18.60;95.80;;;;;;4970062;28;20033;-80
2023/07/17 07:08:26;;;;;;;14.43;5.78;;;18.60;95.80;;;;;;4986305;28;20105;-78
2023/07/17 07:10:53;;;;;;;13.85;5.85;;;18.60;95.50;;;;;;4968501;28;20056;-77
2023/07/17 07:13:22;;;;;;;13.45;5.00;;;18.60;95.50;;;;;;4984588;28;21598;-77
2023/07/17 07:15:49;;;;;;;16.70;5.85;;;18.60;95.40;;;;;;4987604;28;20026;-77
2023/07/17 07:18:15;;;;;;;11.98;5.90;;;18.70;95.50;;;;;;4970850;28;20553;-78
2023/07/17 07:20:43;;;;;;;14.80;6.35;;;18.90;95.40;;;;;;4975655;28;20042;-78
2023/07/17 07:23:08;;;;;;;13.23;5.82;;;18.70;94.90;;;;;;4986505;28;20030;-79
2023/07/17 07:25:34;;;;;;;18.05;5.57;;;18.80;94.70;;;;;;4992326;28;20030;-82
2023/07/17 07:28:05;;;;;;;11.65;5.43;;;18.90;95.00;;;;;;4989618;28;20030;-84
2023/07/17 07:30:30;;;;;;;11.05;5.28;;;18.90;95.00;;;;;;4992295;28;20026;-82
2023/07/17 07:32:58;;;;;;;12.70;5.15;;;19.10;94.20;;;;;;4992625;28;20089;-82
2023/07/17 07:35:24;;;;;;;14.70;5.22;;;19.10;94.70;;;;;;4975875;28;20026;-82
2023/07/17 07:37:52;;;;;;;18.65;6.20;;;19.10;94.60;;;;;;4992117;28;20517;-82
2023/07/17 07:40:18;;;;;;;8.43;4.35;;;19.10;94.10;;;;;;4974382;28;20018;-81
2023/07/17 07:42:44;;;;;;;12.93;5.25;;;19.20;94.00;;;;;;4993917;28;20121;-83
2023/07/17 07:45:10;;;;;;;9.05;4.68;;;19.30;93.70;;;;;;4992208;28;20134;-83
2023/07/17 07:47:39;;;;;;;12.85;4.70;;;19.40;93.50;;;;;;4991617;28;20105;-82
2023/07/17 07:50:05;;;;;;;9.27;4.35;;;19.50;93.50;;;;;;4989042;28;20034;-82
2023/07/17 07:52:31;;;;;;;11.30;4.28;;;19.60;93.40;;;;;;4990262;28;20113;-82
2023/07/17 07:54:57;;;;;;;12.95;4.57;;;19.50;92.90;;;;;;4987570;28;20158;-81
2023/07/17 07:57:22;;;;;;;10.13;4.13;;;19.50;92.60;;;;;;4989836;28;20449;-82
2023/07/17 07:59:49;;;;;;;6.97;3.63;;;19.60;92.20;;;;;;4972243;28;20014;-82
2023/07/17 08:02:15;;;;;;;11.85;4.30;;;19.80;90.90;;;;;;4988629;28;20053;-82
2023/07/17 08:04:40;;;;;;;7.95;3.58;;;19.90;91.50;;;;;;4974217;28;20134;-82
2023/07/17 08:07:08;;;;;;;7.70;3.15;;;19.80;91.10;;;;;;4992341;28;20503;-82
2023/07/17 08:09:34;;;;;;;7.75;3.67;;;19.90;91.00;;;;;;4990026;28;20243;-81
2023/07/17 08:11:59;;;;;;;8.75;3.47;;;19.90;90.90;;;;;;4992668;28;20021;-82
2023/07/17 08:14:25;;;;;;;9.82;3.78;;;20.00;90.50;;;;;;4975036;28;20030;-82
2023/07/17 08:16:51;;;;;;;5.78;3.63;;;20.10;90.40;;;;;;4990641;28;20025;-82
2023/07/17 08:19:19;;;;;;;6.40;3.30;;;20.10;89.00;;;;;;4991396;28;20018;-82
2023/07/17 08:21:49;;;;;;;11.40;3.80;;;20.20;88.80;;;;;;4974720;28;20025;-81
2023/07/17 08:24:15;;;;;;;8.65;3.08;;;20.20;89.00;;;;;;4975028;28;20438;-82
2023/07/17 08:26:41;;;;;;;11.30;3.92;;;20.40;89.90;;;;;;4993359;28;20061;-82
2023/07/17 08:29:10;;;;;;;10.88;3.83;;;20.60;89.80;;;;;;4990528;28;20078;-82
2023/07/17 08:31:36;;;;;;;7.05;3.83;;;20.60;89.20;;;;;;4991252;28;20101;-82
2023/07/17 08:34:03;;;;;;;6.70;4.78;;;20.70;90.00;;;;;;4992420;28;20434;-81
2023/07/17 08:36:29;;;;;;;9.20;3.33;;;20.50;88.50;;;;;;4973269;28;20034;-82
2023/07/17 08:38:55;;;;;;;9.02;3.85;;;20.50;88.00;;;;;;4987591;28;20080;-82
2023/07/17 08:41:24;;;;;;;13.57;3.72;;;20.60;88.40;;;;;;4980611;28;20073;-82
2023/07/17 08:43:51;;;;;;;6.82;3.38;;;20.70;88.90;;;;;;4988466;28;20402;-82
2023/07/17 08:46:21;;;;;;;7.38;3.83;;;20.80;88.80;;;;;;4988792;28;20034;-82
2023/07/17 08:48:48;;;;;;;6.68;3.53;;;20.60;87.50;;;;;;4989689;28;20105;-82
2023/07/17 08:51:14;;;;;;;10.95;4.13;;;20.80;89.10;;;;;;4989244;28;20030;-81
2023/07/17 08:53:43;;;;;;;7.75;4.10;;;21.00;88.20;;;;;;4989139;28;20497;-81
2023/07/17 08:56:11;;;;;;;9.55;4.38;;;21.10;87.80;;;;;;4986084;28;20030;-82
2023/07/17 08:58:37;;;;;;;7.78;3.92;;;21.20;86.50;;;;;;4985240;28;20475;-84
2023/07/17 09:01:03;;;;;;;11.88;4.70;;;21.10;87.50;;;;;;4987871;28;20031;-83
2023/07/17 09:03:32;;;;;;;9.02;3.90;;;21.20;87.40;;;;;;4987877;28;20397;-82
2023/07/17 09:05:58;;;;;;;11.15;4.20;;;21.30;85.20;;;;;;4988409;28;20018;-82
2023/07/17 09:08:24;;;;;;;7.80;3.60;;;21.60;85.20;;;;;;4970837;28;20039;-82
2023/07/17 09:11:07;;;;;;;9.57;4.20;;;21.70;84.30;;;;;;4969674;28;20029;-82
2023/07/17 09:13:40;;;;;;;11.50;3.75;;;21.70;84.80;;;;;;4989234;28;20386;-82
2023/07/17 09:16:14;;;;;;;11.15;4.47;;;21.70;85.10;;;;;;4969283;28;20102;-83
2023/07/17 09:18:40;;;;;;;9.10;3.90;;;21.80;85.50;;;;;;4972077;28;20201;-82
2023/07/17 09:21:06;;;;;;;10.23;3.88;;;22.10;84.20;;;;;;4970491;28;20027;-81
2023/07/17 09:23:39;;;;;;;8.82;3.60;;;22.40;81.00;;;;;;4988812;28;20085;-81
2023/07/17 09:26:05;;;;;;;12.52;3.80;;;22.20;80.50;;;;;;4986346;28;20030;-82
2023/07/17 09:28:35;;;;;;;7.70;3.67;;;22.20;82.10;;;;;;4971469;28;20029;-82
2023/07/17 09:31:03;;;;;;;10.25;4.03;;;21.90;84.20;;;;;;4977585;28;20018;-82
2023/07/17 09:33:29;;;;;;;17.35;4.07;;;22.30;83.90;;;;;;4987620;28;20113;-82
2023/07/17 09:35:56;;;;;;;13.88;4.78;;;22.80;85.10;;;;;;4969732;28;20101;-82
2023/07/17 09:38:26;;;;;;;11.93;4.45;;;23.00;81.20;;;;;;4989830;28;20141;-82
2023/07/17 09:40:54;;;;;;;12.20;4.28;;;23.30;78.90;;;;;;4985122;28;20481;-80
2023/07/17 09:43:30;;;;;;;9.32;3.60;;;23.10;78.80;;;;;;4986899;28;20088;-82
2023/07/17 09:46:00;;;;;;;8.02;3.45;;;22.80;78.90;;;;;;4978218;28;20036;-86
2023/07/17 09:48:31;;;;;;;18.70;7.93;;;22.50;80.50;;;;;;4985590;28;20529;-84
2023/07/17 09:51:01;;;;;;;10.45;3.75;;;22.60;80.10;;;;;;4986757;28;20494;-82
2023/07/17 09:53:30;;;;;;;6.05;3.33;;;22.50;80.40;;;;;;4988553;28;20073;-83
2023/07/17 09:55:56;;;;;;;9.48;3.55;;;22.30;80.80;;;;;;4985818;28;20447;-82
2023/07/17 09:58:26;;;;;;;11.80;3.72;;;22.10;82.00;;;;;;4980809;28;20072;-81
2023/07/17 10:00:55;;;;;;;7.18;3.15;;;21.90;81.50;;;;;;4967238;28;20026;-83
2023/07/17 10:03:23;;;;;;;9.20;3.63;;;21.80;83.20;;;;;;4985924;28;20027;-83
2023/07/17 10:05:51;;;;;;;10.23;3.67;;;21.90;82.00;;;;;;4986242;28;20058;-83
2023/07/17 10:08:18;;;;;;;7.05;3.00;;;22.00;81.80;;;;;;4985828;28;20026;-84
2023/07/17 10:10:43;;;;;;;5.00;3.78;;;21.90;81.90;;;;;;4966690;28;20574;-84
2023/07/17 10:13:10;;;;;;;5.93;3.47;;;22.00;81.30;;;;;;4984407;28;20109;-82
2023/07/17 10:15:38;;;;;;;13.93;3.47;;;22.10;81.40;;;;;;4987860;28;20053;-82
2023/07/17 10:18:09;;;;;;;6.85;3.60;;;22.20;81.20;;;;;;4984458;28;20034;-88
2023/07/17 10:20:37;;;;;;;9.57;3.55;;;22.60;82.10;;;;;;4984486;28;20038;-83
2023/07/17 10:23:05;;;;;;;8.25;3.67;;;23.20;78.30;;;;;;4996896;28;20088;-82
2023/07/17 10:25:31;;;;;;;7.82;3.65;;;23.50;77.40;;;;;;4968427;28;20454;-83
2023/07/17 10:28:03;;;;;;;9.55;3.70;;;23.80;76.00;;;;;;4986901;28;20029;-83
2023/07/17 10:30:35;;;;;;;9.30;3.33;;;24.00;74.70;;;;;;4968820;28;20022;-84
2023/07/17 10:33:12;;;;;;;8.23;3.08;;;24.00;73.50;;;;;;4985003;28;20282;-83
2023/07/17 10:36:00;;;;;;;8.18;2.90;;;24.30;71.90;;;;;;4984946;28;20068;-84
2023/07/17 10:38:39;;;;;;;6.45;3.08;;;24.30;71.70;;;;;;4979772;28;20483;-84
2023/07/17 10:41:14;;;;;;;7.15;2.90;;;24.70;72.00;;;;;;4967961;28;20833;-83
2023/07/17 10:43:52;;;;;;;6.75;3.45;;;24.50;69.80;;;;;;4978182;28;20026;-83
2023/07/17 10:46:28;;;;;;;7.40;3.75;;;23.60;71.20;;;;;;4984813;28;20030;-83
2023/07/17 10:49:15;;;;;;;6.63;2.80;;;23.50;72.30;;;;;;4983932;28;20125;-81
2023/07/17 10:51:45;;;;;;;6.03;2.70;;;23.60;72.80;;;;;;4983848;28;20018;-83
2023/07/17 10:54:12;;;;;;;6.30;3.03;;;24.00;72.80;;;;;;4980935;28;20034;-83
2023/07/17 10:56:37;;;;;;;6.40;2.70;;;23.60;72.50;;;;;;4974067;28;20014;-83
2023/07/17 10:59:04;;;;;;;4.85;2.40;;;23.40;72.60;;;;;;4982984;28;20486;-83
2023/07/17 11:01:32;;;;;;;6.88;2.60;;;23.50;73.20;;;;;;4983404;28;20041;-84
2023/07/17 11:03:58;;;;;;;8.45;2.67;;;23.90;72.50;;;;;;4983763;28;20494;-84
2023/07/17 11:06:27;;;;;;;10.77;2.80;;;24.20;71.30;;;;;;4984766;28;20045;-83
2023/07/17 11:08:54;;;;;;;7.00;3.20;;;24.20;67.90;;;;;;4967325;28;20027;-83
2023/07/17 11:11:20;;;;;;;6.78;3.15;;;23.70;69.30;;;;;;4982646;28;20487;-84
2023/07/17 11:13:50;;;;;;;6.18;2.70;;;23.70;69.40;;;;;;4977692;28;20057;-82
2023/07/17 11:16:16;;;;;;;7.00;2.65;;;23.30;71.00;;;;;;4975772;28;20117;-81
2023/07/17 11:18:50;;;;;;;6.20;2.85;;;23.50;71.00;;;;;;4967326;28;20117;-83
2023/07/17 11:21:17;;;;;;;4.25;2.90;;;23.50;70.00;;;;;;4984858;28;20089;-83
2023/07/17 11:23:53;;;;;;;6.43;2.95;;;23.50;70.20;;;;;;4985135;28;20019;-82
2023/07/17 11:26:29;;;;;;;5.32;3.10;;;23.40;70.50;;;;;;4984761;28;20062;-82
2023/07/17 11:28:57;;;;;;;5.43;2.50;;;23.80;70.30;;;;;;4978440;28;20023;-83
2023/07/17 11:31:24;;;;;;;16.45;6.07;;;23.90;67.20;;;;;;4964324;28;20510;-81
2023/07/17 11:34:00;;;;;;;5.60;2.70;;;23.90;66.40;;;;;;4982400;28;20125;-83
2023/07/17 11:36:41;;;;;;;4.78;2.80;;;24.30;66.50;;;;;;4981081;28;20038;-84
2023/07/17 11:39:13;;;;;;;5.80;2.70;;;24.60;66.30;;;;;;4973835;28;20514;-81
2023/07/17 11:41:42;;;;;;;7.60;3.00;;;24.50;66.80;;;;;;4959735;28;20034;-82
2023/07/17 11:44:07;;;;;;;3.55;2.10;;;24.80;64.00;;;;;;4967191;28;20038;-81
2023/07/17 11:46:33;;;;;;;4.43;2.80;;;24.70;64.40;;;;;;4982501;28;20460;-82
2023/07/17 11:48:59;;;;;;;4.72;2.92;;;24.90;63.80;;;;;;4979004;28;20038;-81
2023/07/17 11:51:26;;;;;;;7.07;3.22;;;24.80;62.50;;;;;;4962932;28;20105;-82
2023/07/17 11:53:54;;;;;;;3.85;2.50;;;24.60;63.30;;;;;;4982174;28;20097;-82
2023/07/17 11:56:33;;;;;;;3.00;2.38;;;24.80;62.00;;;;;;4965087;28;20211;-82
2023/07/17 11:59:05;;;;;;;4.95;2.13;;;24.70;62.60;;;;;;4983690;28;20010;-83
2023/07/17 12:01:31;;;;;;;4.22;2.38;;;24.60;62.80;;;;;;4983662;28;20443;-83
2023/07/17 12:04:14;;;;;;;3.67;2.42;;;24.90;63.20;;;;;;4980415;28;20678;-78
2023/07/17 12:06:39;;;;;;;3.83;2.55;;;24.70;61.00;;;;;;4981531;28;20030;-79
2023/07/17 12:09:05;;;;;;;2.55;2.20;;;24.90;61.90;;;;;;5102474;23;21340;-79
2023/07/17 12:11:30;;;;;;;3.60;2.50;;;24.90;60.40;;;;;;4953882;28;20041;-83
2023/07/17 12:13:59;;;;;;;5.15;2.47;;;24.90;60.00;;;;;;4982690;28;20390;-82
2023/07/17 12:16:25;;;;;;;2.88;2.20;;;25.10;59.60;;;;;;4980737;28;20034;-83
2023/07/17 12:18:50;;;;;;;3.85;2.58;;;25.10;59.50;;;;;;4981282;28;20088;-83
2023/07/17 12:21:18;;;;;;;3.97;2.70;;;25.00;59.70;;;;;;4974388;28;20025;-81
2023/07/17 12:23:44;;;;;;;6.18;2.97;;;25.00;59.40;;;;;;4980948;28;20035;-82
2023/07/17 12:26:10;;;;;;;4.15;2.60;;;25.20;59.80;;;;;;4968524;28;20060;-82
2023/07/17 12:28:36;;;;;;;6.88;2.70;;;25.20;59.10;;;;;;4984174;28;20027;-81
2023/07/17 12:31:01;;;;;;;3.72;2.97;;;24.80;60.40;;;;;;5094211;23;20045;-83
2023/07/17 12:33:27;;;;;;;32.92;15.13;;;25.10;60.80;;;;;;4961678;28;20042;-79
2023/07/17 12:35:52;;;;;;;3.67;3.15;;;25.30;59.70;;;;;;4976874;28;20120;-79
2023/07/17 12:38:21;;;;;;;8.23;2.70;;;25.40;59.90;;;;;;4978236;28;20058;-79
2023/07/17 12:40:56;;;;;;;3.30;2.83;;;25.40;60.30;;;;;;4957197;28;20141;-79
2023/07/17 12:43:22;;;;;;;7.00;3.17;;;25.50;58.60;;;;;;4960454;28;20038;-78
2023/07/17 12:45:48;;;;;;;8.88;2.95;;;25.60;59.30;;;;;;4982756;28;20441;-85